sensor_id;sensor_type;location;lat;lon;timestamp;temperature;humidity
34558;DHT22;24708;48.888;8.736;2022-11-30T06:32:06;5.50;99.90
34558;DHT22;24708;48.888;8.736;2022-11-30T06:34:33;5.40;99.90
34558;DHT22;24708;48.888;8.736;2022-11-30T06:37:01;5.50;99.90
34558;DHT22;24708;48.888;8.736;2022-11-30T06:39:28;5.50;99.90
34558;DHT22;24708;48.888;8.736;2022-11-30T06:42:15;5.50;99.90
34558;DHT22;24708;48.888;8.736;2022-11-30T06:44:45;5.40;99.90
34558;DHT22;24708;48.888;8.736;2022-11-30T06:47:13;5.30;99.90
34558;DHT22;24708;48.888;8.736;2022-11-30T06:49:40;5.30;99.90
34558;DHT22;24708;48.888;8.736;2022-11-30T06:52:07;5.30;99.90
34558;DHT22;24708;48.888;8.736;2022-11-30T06:54:34;5.30;99.90
34558;DHT22;24708;48.888;8.736;2022-11-30T06:57:02;5.50;99.90
34558;DHT22;24708;48.888;8.736;2022-11-30T06:59:29;5.50;99.90
34558;DHT22;24708;48.888;8.736;2022-11-30T07:01:57;5.40;99.90
34558;DHT22;24708;48.888;8.736;2022-11-30T07:04:32;5.40;99.90
34558;DHT22;24708;48.888;8.736;2022-11-30T07:07:00;5.40;99.90
34558;DHT22;24708;48.888;8.736;2022-11-30T07:09:27;5.50;99.90
34558;DHT22;24708;48.888;8.736;2022-11-30T07:11:55;5.50;99.90
34558;DHT22;24708;48.888;8.736;2022-11-30T07:14:22;5.50;99.90
34558;DHT22;24708;48.888;8.736;2022-11-30T07:16:50;5.40;99.90
34558;DHT22;24708;48.888;8.736;2022-11-30T07:19:18;5.30;99.90
34558;DHT22;24708;48.888;8.736;2022-11-30T07:21:45;5.40;99.90
34558;DHT22;24708;48.888;8.736;2022-11-30T07:24:13;5.50;99.90
34558;DHT22;24708;48.888;8.736;2022-11-30T07:27:01;5.50;99.90
34558;DHT22;24708;48.888;8.736;2022-11-30T07:29:29;5.60;99.90
34558;DHT22;24708;48.888;8.736;2022-11-30T07:31:57;5.60;99.90
34558;DHT22;24708;48.888;8.736;2022-11-30T07:34:24;5.60;99.90
34558;DHT22;24708;48.888;8.736;2022-11-30T07:36:52;5.70;99.90
34558;DHT22;24708;48.888;8.736;2022-11-30T07:39:19;4.80;99.90
34558;DHT22;24708;48.888;8.736;2022-11-30T07:41:47;5.70;99.90
34558;DHT22;24708;48.888;8.736;2022-11-30T07:44:14;5.70;99.90
34558;DHT22;24708;48.888;8.736;2022-11-30T07:46:41;5.90;99.90
34558;DHT22;24708;48.888;8.736;2022-11-30T07:49:09;5.70;99.90
34558;DHT22;24708;48.888;8.736;2022-11-30T07:51:36;5.70;99.90
34558;DHT22;24708;48.888;8.736;2022-11-30T07:54:04;5.80;99.90
34558;DHT22;24708;48.888;8.736;2022-11-30T07:56:31;5.80;99.90
34558;DHT22;24708;48.888;8.736;2022-11-30T07:59:00;5.60;99.90
34558;DHT22;24708;48.888;8.736;2022-11-30T08:01:30;5.70;99.90
34558;DHT22;24708;48.888;8.736;2022-11-30T08:03:58;5.80;99.90
34558;DHT22;24708;48.888;8.736;2022-11-30T08:06:27;5.70;99.90
34558;DHT22;24708;48.888;8.736;2022-11-30T08:08:58;5.80;99.90
34558;DHT22;24708;48.888;8.736;2022-11-30T08:11:28;5.90;99.90
34558;DHT22;24708;48.888;8.736;2022-11-30T08:13:56;5.90;99.90
34558;DHT22;24708;48.888;8.736;2022-11-30T08:16:25;5.90;99.90
34558;DHT22;24708;48.888;8.736;2022-11-30T08:18:55;5.90;99.90
34558;DHT22;24708;48.888;8.736;2022-11-30T08:21:23;6.00;99.90
34558;DHT22;24708;48.888;8.736;2022-11-30T08:23:53;6.50;99.90
34558;DHT22;24708;48.888;8.736;2022-11-30T08:26:26;6.20;99.90
34558;DHT22;24708;48.888;8.736;2022-11-30T08:28:55;6.20;99.90
34558;DHT22;24708;48.888;8.736;2022-11-30T08:31:26;5.90;99.90
34558;DHT22;24708;48.888;8.736;2022-11-30T08:33:58;6.40;99.90
34558;DHT22;24708;48.888;8.736;2022-11-30T08:36:27;6.40;99.90
34558;DHT22;24708;48.888;8.736;2022-11-30T08:38:57;6.40;99.90
34558;DHT22;24708;48.888;8.736;2022-11-30T08:41:25;6.40;99.90
34558;DHT22;24708;48.888;8.736;2022-11-30T08:43:53;6.40;99.90
34558;DHT22;24708;48.888;8.736;2022-11-30T08:46:22;6.20;99.90
34558;DHT22;24708;48.888;8.736;2022-11-30T08:49:10;6.00;99.90
34558;DHT22;24708;48.888;8.736;2022-11-30T08:51:51;6.10;99.90
34558;DHT22;24708;48.888;8.736;2022-11-30T08:54:41;6.30;99.90
34558;DHT22;24708;48.888;8.736;2022-11-30T08:57:13;6.20;99.90
34558;DHT22;24708;48.888;8.736;2022-11-30T08:59:44;6.20;99.90
34558;DHT22;24708;48.888;8.736;2022-11-30T09:02:18;6.20;99.90
34558;DHT22;24708;48.888;8.736;2022-11-30T09:04:47;6.30;99.90
34558;DHT22;24708;48.888;8.736;2022-11-30T09:07:19;6.30;99.90
34558;DHT22;24708;48.888;8.736;2022-11-30T09:09:49;6.30;99.90
34558;DHT22;24708;48.888;8.736;2022-11-30T09:12:24;6.30;99.90
34558;DHT22;24708;48.888;8.736;2022-11-30T09:14:55;6.30;99.90
34558;DHT22;24708;48.888;8.736;2022-11-30T09:17:39;5.30;99.90
34558;DHT22;24708;48.888;8.736;2022-11-30T09:20:14;7.00;99.90
34558;DHT22;24708;48.888;8.736;2022-11-30T09:22:44;5.90;99.90
34558;DHT22;24708;48.888;8.736;2022-11-30T09:25:11;6.50;99.90
34558;DHT22;24708;48.888;8.736;2022-11-30T09:27:41;4.70;99.90
34558;DHT22;24708;48.888;8.736;2022-11-30T09:30:14;6.70;99.90
34558;DHT22;24708;48.888;8.736;2022-11-30T09:32:43;6.30;99.90
34558;DHT22;24708;48.888;8.736;2022-11-30T09:35:34;5.00;99.90
34558;DHT22;24708;48.888;8.736;2022-11-30T09:38:16;6.50;99.90
34558;DHT22;24708;48.888;8.736;2022-11-30T09:40:53;6.10;99.90
34558;DHT22;24708;48.888;8.736;2022-11-30T09:46:12;8.50;99.90
34558;DHT22;24708;48.888;8.736;2022-11-30T09:49:11;6.70;99.90
34558;DHT22;24708;48.888;8.736;2022-11-30T09:51:46;7.40;99.90
34558;DHT22;24708;48.888;8.736;2022-11-30T09:54:21;6.70;99.90
34558;DHT22;24708;48.888;8.736;2022-11-30T09:57:46;7.00;99.90
34558;DHT22;24708;48.888;8.736;2022-11-30T10:00:41;7.20;99.90
34558;DHT22;24708;48.888;8.736;2022-11-30T10:03:11;6.10;99.90
34558;DHT22;24708;48.888;8.736;2022-11-30T10:05:46;6.20;99.90
34558;DHT22;24708;48.888;8.736;2022-11-30T10:08:29;5.90;99.90
34558;DHT22;24708;48.888;8.736;2022-11-30T10:17:33;6.00;99.90
34558;DHT22;24708;48.888;8.736;2022-11-30T10:23:21;6.40;99.90
34558;DHT22;24708;48.888;8.736;2022-11-30T10:25:56;6.50;99.90
34558;DHT22;24708;48.888;8.736;2022-11-30T10:28:44;5.80;99.90
34558;DHT22;24708;48.888;8.736;2022-11-30T10:31:17;6.40;99.90
34558;DHT22;24708;48.888;8.736;2022-11-30T10:33:47;6.70;99.90
34558;DHT22;24708;48.888;8.736;2022-11-30T10:36:57;7.20;99.90
34558;DHT22;24708;48.888;8.736;2022-11-30T10:39:21;7.10;99.90
34558;DHT22;24708;48.888;8.736;2022-11-30T10:41:58;7.00;99.90
34558;DHT22;24708;48.888;8.736;2022-11-30T10:44:33;6.90;99.90
34558;DHT22;24708;48.888;8.736;2022-11-30T10:47:21;6.90;99.90
34558;DHT22;24708;48.888;8.736;2022-11-30T10:49:51;6.80;99.90
34558;DHT22;24708;48.888;8.736;2022-11-30T10:52:26;6.90;99.90
34558;DHT22;24708;48.888;8.736;2022-11-30T10:54:56;7.00;99.90
34558;DHT22;24708;48.888;8.736;2022-11-30T10:57:31;7.00;99.90
34558;DHT22;24708;48.888;8.736;2022-11-30T11:00:04;7.00;99.90
34558;DHT22;24708;48.888;8.736;2022-11-30T11:02:37;7.00;99.90
34558;DHT22;24708;48.888;8.736;2022-11-30T11:05:27;7.10;99.90
34558;DHT22;24708;48.888;8.736;2022-11-30T11:08:29;7.00;99.90
34558;DHT22;24708;48.888;8.736;2022-11-30T11:10:48;6.80;99.90
34558;DHT22;24708;48.888;8.736;2022-11-30T11:13:36;6.90;99.90
34558;DHT22;24708;48.888;8.736;2022-11-30T11:16:06;6.90;99.90
34558;DHT22;24708;48.888;8.736;2022-11-30T11:18:36;6.50;99.90
34558;DHT22;24708;48.888;8.736;2022-11-30T11:21:18;6.30;99.90
34558;DHT22;24708;48.888;8.736;2022-11-30T11:23:50;6.10;99.90
34558;DHT22;24708;48.888;8.736;2022-11-30T11:26:23;6.10;99.90
34558;DHT22;24708;48.888;8.736;2022-11-30T11:28:53;6.20;99.90
34558;DHT22;24708;48.888;8.736;2022-11-30T11:31:36;6.00;99.90
34558;DHT22;24708;48.888;8.736;2022-11-30T11:34:32;6.10;99.90
34558;DHT22;24708;48.888;8.736;2022-11-30T11:37:03;6.40;99.90
34558;DHT22;24708;48.888;8.736;2022-11-30T11:39:31;6.50;99.90
34558;DHT22;24708;48.888;8.736;2022-11-30T11:41:59;6.70;99.90
34558;DHT22;24708;48.888;8.736;2022-11-30T11:44:27;6.90;99.90
34558;DHT22;24708;48.888;8.736;2022-11-30T11:47:02;6.90;99.90
34558;DHT22;24708;48.888;8.736;2022-11-30T11:49:35;6.90;99.90
34558;DHT22;24708;48.888;8.736;2022-11-30T11:55:04;7.00;99.90
34558;DHT22;24708;48.888;8.736;2022-11-30T11:57:40;6.30;99.90
34558;DHT22;24708;48.888;8.736;2022-11-30T12:00:18;6.40;99.90
34558;DHT22;24708;48.888;8.736;2022-11-30T12:03:17;7.20;99.90
34558;DHT22;24708;48.888;8.736;2022-11-30T12:06:01;7.10;99.90
34558;DHT22;24708;48.888;8.736;2022-11-30T12:08:51;7.00;99.90
34558;DHT22;24708;48.888;8.736;2022-11-30T12:11:43;7.00;99.90
34558;DHT22;24708;48.888;8.736;2022-11-30T12:14:14;7.10;99.90
34558;DHT22;24708;48.888;8.736;2022-11-30T12:16:58;7.10;99.90
34558;DHT22;24708;48.888;8.736;2022-11-30T12:19:39;7.10;99.90
34558;DHT22;24708;48.888;8.736;2022-11-30T12:22:29;8.90;99.90
34558;DHT22;24708;48.888;8.736;2022-11-30T12:25:22;7.20;99.90
34558;DHT22;24708;48.888;8.736;2022-11-30T12:37:21;8.80;99.90
34558;DHT22;24708;48.888;8.736;2022-11-30T12:40:18;7.10;99.90
34558;DHT22;24708;48.888;8.736;2022-11-30T12:43:11;7.10;99.90
34558;DHT22;24708;48.888;8.736;2022-11-30T12:45:43;7.20;99.90
34558;DHT22;24708;48.888;8.736;2022-11-30T12:51:28;7.00;99.90
34558;DHT22;24708;48.888;8.736;2022-11-30T12:54:09;6.90;99.90
34558;DHT22;24708;48.888;8.736;2022-11-30T12:56:56;6.90;99.90
34558;DHT22;24708;48.888;8.736;2022-11-30T12:59:43;7.00;99.90
34558;DHT22;24708;48.888;8.736;2022-11-30T13:05:16;6.80;99.90
34558;DHT22;24708;48.888;8.736;2022-11-30T13:07:56;6.70;99.90
34558;DHT22;24708;48.888;8.736;2022-11-30T13:10:46;6.70;99.90
34558;DHT22;24708;48.888;8.736;2022-11-30T13:13:18;6.60;99.90
34558;DHT22;24708;48.888;8.736;2022-11-30T13:15:48;6.50;99.90
34558;DHT22;24708;48.888;8.736;2022-11-30T13:18:19;6.50;99.90
34558;DHT22;24708;48.888;8.736;2022-11-30T13:23:38;6.50;99.90
34558;DHT22;24708;48.888;8.736;2022-11-30T13:26:18;6.50;99.90
34558;DHT22;24708;48.888;8.736;2022-11-30T13:29:13;6.60;99.90
34558;DHT22;24708;48.888;8.736;2022-11-30T13:32:17;6.60;99.90
34558;DHT22;24708;48.888;8.736;2022-11-30T13:34:53;6.60;99.90
34558;DHT22;24708;48.888;8.736;2022-11-30T13:37:41;6.60;99.90
34558;DHT22;24708;48.888;8.736;2022-11-30T13:40:19;6.60;99.90
34558;DHT22;24708;48.888;8.736;2022-11-30T13:42:53;6.70;99.90
34558;DHT22;24708;48.888;8.736;2022-11-30T13:45:31;6.70;99.90
34558;DHT22;24708;48.888;8.736;2022-11-30T13:48:16;6.70;99.90
34558;DHT22;24708;48.888;8.736;2022-11-30T13:50:46;6.70;99.90
34558;DHT22;24708;48.888;8.736;2022-11-30T13:53:22;6.60;99.90
34558;DHT22;24708;48.888;8.736;2022-11-30T13:55:55;6.60;99.90
34558;DHT22;24708;48.888;8.736;2022-11-30T13:58:24;6.70;99.90
34558;DHT22;24708;48.888;8.736;2022-11-30T14:01:27;6.60;99.90
34558;DHT22;24708;48.888;8.736;2022-11-30T14:06:47;6.50;99.90
34558;DHT22;24708;48.888;8.736;2022-11-30T14:12:35;6.50;99.90
34558;DHT22;24708;48.888;8.736;2022-11-30T14:15:28;6.50;99.90
34558;DHT22;24708;48.888;8.736;2022-11-30T14:17:58;6.40;99.90
34558;DHT22;24708;48.888;8.736;2022-11-30T14:20:33;6.40;99.90
34558;DHT22;24708;48.888;8.736;2022-11-30T14:23:05;6.40;99.90
34558;DHT22;24708;48.888;8.736;2022-11-30T14:25:34;6.40;99.90
34558;DHT22;24708;48.888;8.736;2022-11-30T14:28:04;6.40;99.90
34558;DHT22;24708;48.888;8.736;2022-11-30T14:30:33;6.40;99.90
34558;DHT22;24708;48.888;8.736;2022-11-30T14:33:04;6.30;99.90
34558;DHT22;24708;48.888;8.736;2022-11-30T14:35:33;6.40;99.90
34558;DHT22;24708;48.888;8.736;2022-11-30T14:38:14;6.40;99.90
34558;DHT22;24708;48.888;8.736;2022-11-30T14:40:50;6.40;99.90
34558;DHT22;24708;48.888;8.736;2022-11-30T14:43:18;6.30;99.90
34558;DHT22;24708;48.888;8.736;2022-11-30T14:46:03;6.30;99.90
34558;DHT22;24708;48.888;8.736;2022-11-30T14:48:36;6.40;99.90
34558;DHT22;24708;48.888;8.736;2022-11-30T14:51:03;6.40;99.90
34558;DHT22;24708;48.888;8.736;2022-11-30T14:53:41;6.40;99.90
34558;DHT22;24708;48.888;8.736;2022-11-30T14:56:19;6.40;99.90
34558;DHT22;24708;48.888;8.736;2022-11-30T14:58:54;6.30;99.90
34558;DHT22;24708;48.888;8.736;2022-11-30T15:01:27;6.30;99.90
34558;DHT22;24708;48.888;8.736;2022-11-30T15:04:02;6.20;99.90
34558;DHT22;24708;48.888;8.736;2022-11-30T15:06:32;6.10;99.90
34558;DHT22;24708;48.888;8.736;2022-11-30T15:09:00;6.10;99.90
34558;DHT22;24708;48.888;8.736;2022-11-30T15:11:28;6.20;99.90
34558;DHT22;24708;48.888;8.736;2022-11-30T15:14:05;6.20;99.90
34558;DHT22;24708;48.888;8.736;2022-11-30T15:16:33;6.20;99.90
34558;DHT22;24708;48.888;8.736;2022-11-30T15:19:18;6.20;99.90
34558;DHT22;24708;48.888;8.736;2022-11-30T15:21:46;6.20;99.90
34558;DHT22;24708;48.888;8.736;2022-11-30T15:24:14;6.20;99.90
34558;DHT22;24708;48.888;8.736;2022-11-30T15:26:59;6.20;99.90
34558;DHT22;24708;48.888;8.736;2022-11-30T15:29:38;6.20;99.90
34558;DHT22;24708;48.888;8.736;2022-11-30T15:32:14;6.20;99.90
34558;DHT22;24708;48.888;8.736;2022-11-30T15:34:48;6.20;99.90
34558;DHT22;24708;48.888;8.736;2022-11-30T15:37:39;6.20;99.90
34558;DHT22;24708;48.888;8.736;2022-11-30T15:40:08;6.20;99.90
34558;DHT22;24708;48.888;8.736;2022-11-30T15:42:38;6.10;99.90
34558;DHT22;24708;48.888;8.736;2022-11-30T15:45:25;6.10;99.90
34558;DHT22;24708;48.888;8.736;2022-11-30T15:47:53;6.20;99.90
34558;DHT22;24708;48.888;8.736;2022-11-30T15:50:33;6.10;99.90
34558;DHT22;24708;48.888;8.736;2022-11-30T15:53:46;6.10;99.90
34558;DHT22;24708;48.888;8.736;2022-11-30T15:55:53;6.00;99.90
34558;DHT22;24708;48.888;8.736;2022-11-30T15:58:41;6.10;99.90
34558;DHT22;24708;48.888;8.736;2022-11-30T16:01:17;6.10;99.90
34558;DHT22;24708;48.888;8.736;2022-11-30T16:03:59;6.20;99.90
34558;DHT22;24708;48.888;8.736;2022-11-30T16:06:34;6.10;99.90
34558;DHT22;24708;48.888;8.736;2022-11-30T16:09:06;6.00;99.90
34558;DHT22;24708;48.888;8.736;2022-11-30T16:11:43;6.10;99.90
34558;DHT22;24708;48.888;8.736;2022-11-30T16:14:14;6.00;99.90
34558;DHT22;24708;48.888;8.736;2022-11-30T16:16:43;6.00;99.90
34558;DHT22;24708;48.888;8.736;2022-11-30T16:19:10;6.00;99.90
34558;DHT22;24708;48.888;8.736;2022-11-30T16:21:38;6.10;99.90
34558;DHT22;24708;48.888;8.736;2022-11-30T16:24:05;6.10;99.90
34558;DHT22;24708;48.888;8.736;2022-11-30T16:26:32;6.00;99.90
34558;DHT22;24708;48.888;8.736;2022-11-30T16:29:19;6.10;99.90
34558;DHT22;24708;48.888;8.736;2022-11-30T16:31:47;6.00;99.90
34558;DHT22;24708;48.888;8.736;2022-11-30T16:34:15;6.00;99.90
34558;DHT22;24708;48.888;8.736;2022-11-30T16:36:42;6.00;99.90
34558;DHT22;24708;48.888;8.736;2022-11-30T16:39:11;6.00;99.90
34558;DHT22;24708;48.888;8.736;2022-11-30T16:41:38;6.00;99.90
34558;DHT22;24708;48.888;8.736;2022-11-30T16:44:11;6.00;99.90
34558;DHT22;24708;48.888;8.736;2022-11-30T16:46:39;6.00;99.90
34558;DHT22;24708;48.888;8.736;2022-11-30T16:49:06;6.00;99.90
34558;DHT22;24708;48.888;8.736;2022-11-30T16:51:34;6.00;99.90
34558;DHT22;24708;48.888;8.736;2022-11-30T16:54:03;6.00;99.90
34558;DHT22;24708;48.888;8.736;2022-11-30T16:56:30;5.90;99.90
34558;DHT22;24708;48.888;8.736;2022-11-30T16:58:57;5.90;99.90
